Wetterdaten: Woche 15.03.04 - 21.03.04 (KW12)
Datum Zeit Temp. A Sch. Temp. A Son. Feuchte A. Luftdruck Regen Wind Richtung Sonnenschein Helligkeit Taupunkt Windchill
15.03.2004 00:00 8,7 C 8,9 C 54 % 1026 hPa 0,0 l/m 5,2 m/s (1 Bft) W-SW 0,00 h 0 lux 0,0 C 2,0 C
15.03.2004 01:00 8,6 C 8,9 C 56 % 1026 hPa 0,0 l/m 4,8 m/s (1 Bft) SW 0,00 h 0 lux 0,3 C 2,6 C
15.03.2004 02:00 8,5 C 8,8 C 57 % 1026 hPa 0,0 l/m 2,9 m/s (1 Bft) W-SW 0,00 h 0 lux 0,5 C 6,0 C
15.03.2004 03:00 8,5 C 8,7 C 58 % 1026 hPa 0,0 l/m 2,0 m/s (1 Bft) W-SW 0,00 h 0 lux 0,6 C 6,3 C
15.03.2004 04:00 8,7 C 8,9 C 58 % 1026 hPa 0,0 l/m 4,2 m/s (1 Bft) W-SW 0,00 h 0 lux 0,9 C 3,7 C
15.03.2004 05:00 8,5 C 8,8 C 61 % 1027 hPa 0,0 l/m 3,9 m/s (1 Bft) W-SW 0,00 h 0 lux 1,4 C 4,0 C
15.03.2004 06:00 8,6 C 8,8 C 60 % 1027 hPa 0,0 l/m 3,3 m/s (1 Bft) W-SW 0,00 h 451 lux 1,2 C 5,0 C
15.03.2004 07:00 8,5 C 8,7 C 61 % 1028 hPa 0,0 l/m 3,9 m/s (1 Bft) W-SW 0,00 h 1,95 klux 1,4 C 3,8 C
15.03.2004 08:00 8,9 C 9,1 C 61 % 1028 hPa 0,0 l/m 3,0 m/s (1 Bft) W-SW 0,00 h 10,3 klux 1,8 C 6,2 C
15.03.2004 09:00 10,2 C 10,3 C 56 % 1029 hPa 0,0 l/m 5,9 m/s (2 Bft) W-SW 0,33 h 25,5 klux 1,9 C 3,3 C
15.03.2004 10:00 11,1 C 11,6 C 55 % 1029 hPa 0,0 l/m 6,0 m/s (2 Bft) W-SW 0,00 h 32,8 klux 2,4 C 4,4 C
15.03.2004 11:00 12,4 C 13,0 C 52 % 1029 hPa 0,0 l/m 5,5 m/s (1 Bft) SW 0,50 h 55,1 klux 2,8 C 6,6 C
15.03.2004 12:00 13,6 C 16,7 C 47 % 1029 hPa 0,0 l/m 6,6 m/s (2 Bft) W-SW 1,00 h 66,6 klux 2,6 C 7,1 C
15.03.2004 13:00 13,8 C 17,3 C 47 % 1029 hPa 0,0 l/m 7,5 m/s (2 Bft) W-SW 0,33 h 45,5 klux 2,6 C 6,7 C
15.03.2004 14:00 13,0 C 14,6 C 49 % 1029 hPa 0,0 l/m 9,0 m/s (2 Bft) W-SW 0,50 h 43,8 klux 2,4 C 4,5 C
15.03.2004 15:00 12,8 C 14,3 C 48 % 1029 hPa 0,0 l/m 7,9 m/s (2 Bft) W-SW 0,00 h 23,9 klux 2,2 C 5,0 C
15.03.2004 16:00 12,4 C 13,4 C 49 % 1029 hPa 0,0 l/m 6,7 m/s (2 Bft) W-SW 0,08 h 15,4 klux 2,1 C 5,5 C
15.03.2004 17:00 11,8 C 12,4 C 52 % 1030 hPa 0,0 l/m 5,0 m/s (1 Bft) W-SW 0,00 h 2,85 klux 2,3 C 6,4 C
15.03.2004 18:00 11,1 C 11,7 C 56 % 1030 hPa 0,0 l/m 2,5 m/s (1 Bft) SW 0,00 h 382 lux 2,6 C 9,4 C
15.03.2004 19:00 10,3 C 10,9 C 60 % 1030 hPa 0,0 l/m 1,7 m/s (1 Bft) W-SW 0,00 h 30 lux 2,8 C 9,9 C
15.03.2004 20:00 9,0 C 10,0 C 65 % 1030 hPa 0,0 l/m 0,3 m/s (0 Bft) W 0,00 h 0 lux 2,7 C 8,9 C
15.03.2004 21:00 6,7 C 8,3 C 74 % 1030 hPa 0,0 l/m 0,0 m/s (0 Bft) N 0,00 h 0 lux 2,3 C 6,7 C
15.03.2004 22:00 5,6 C 7,1 C 80 % 1030 hPa 0,0 l/m 0,1 m/s (0 Bft) SW 0,00 h 0 lux 2,4 C 5,6 C
15.03.2004 23:00 5,5 C 6,4 C 82 % 1030 hPa 0,0 l/m 0,8 m/s (0 Bft) W-SW 0,00 h 0 lux 2,8 C 5,0 C
16.03.2004 00:00 8,4 C 7,7 C 74 % 1030 hPa 0,0 l/m 4,1 m/s (1 Bft) W 0,00 h 0 lux 4,0 C 3,4 C
16.03.2004 01:00 8,1 C 8,2 C 73 % 1030 hPa 0,0 l/m 2,9 m/s (1 Bft) W 0,00 h 0 lux 3,6 C 5,3 C
16.03.2004 02:00 6,3 C 7,0 C 80 % 1030 hPa 0,0 l/m 0,3 m/s (0 Bft) O 0,00 h 0 lux 3,1 C 6,3 C
16.03.2004 03:00 5,7 C 5,8 C 84 % 1030 hPa 0,0 l/m 0,6 m/s (0 Bft) N-NO 0,00 h 0 lux 3,2 C 5,7 C
16.03.2004 04:00 5,6 C 5,5 C 85 % 1031 hPa 0,0 l/m 0,6 m/s (0 Bft) O-NO 0,00 h 0 lux 3,2 C 5,6 C
16.03.2004 05:00 5,2 C 5,5 C 86 % 1031 hPa 0,0 l/m 0,1 m/s (0 Bft) N-NO 0,00 h 0 lux 3,0 C 5,2 C
16.03.2004 06:00 5,1 C 5,7 C 86 % 1031 hPa 0,0 l/m 0,0 m/s (0 Bft) N 0,00 h 384 lux 3,0 C 5,1 C
16.03.2004 07:00 5,6 C 5,9 C 86 % 1031 hPa 0,0 l/m 0,0 m/s (0 Bft) N 0,00 h 5,99 klux 3,4 C 5,6 C
16.03.2004 08:00 7,9 C 7,2 C 79 % 1031 hPa 0,0 l/m 1,1 m/s (0 Bft) W-SW 0,67 h 26,1 klux 4,5 C 7,0 C
16.03.2004 09:00 11,7 C 11,0 C 65 % 1031 hPa 0,0 l/m 4,2 m/s (1 Bft) W-SW 1,00 h 53,3 klux 5,4 C 7,5 C
16.03.2004 10:00 13,3 C 14,9 C 58 % 1031 hPa 0,0 l/m 5,2 m/s (1 Bft) SW 0,75 h 56,5 klux 5,2 C 8,0 C
16.03.2004 11:00 14,6 C 17,0 C 53 % 1031 hPa 0,0 l/m 5,3 m/s (1 Bft) SW 0,92 h 66,0 klux 5,0 C 9,5 C
16.03.2004 12:00 16,3 C 20,7 C 47 % 1031 hPa 0,0 l/m 5,2 m/s (1 Bft) SW 1,00 h 88,5 klux 4,9 C 11,7 C
16.03.2004 13:00 17,0 C 23,8 C 44 % 1031 hPa 0,0 l/m 4,5 m/s (1 Bft) SW 1,00 h 75,1 klux 4,6 C 13,4 C
16.03.2004 14:00 17,3 C 24,6 C 42 % 1031 hPa 0,0 l/m 4,2 m/s (1 Bft) SW 1,00 h 62,7 klux 4,4 C 14,1 C
16.03.2004 15:00 17,6 C 24,9 C 41 % 1030 hPa 0,0 l/m 4,4 m/s (1 Bft) W-SW 1,00 h 55,7 klux 4,4 C 14,2 C
16.03.2004 16:00 17,3 C 24,4 C 42 % 1030 hPa 0,0 l/m 3,4 m/s (1 Bft) W-SW 1,00 h 34,9 klux 4,3 C 15,0 C
16.03.2004 17:00 16,1 C 21,9 C 46 % 1030 hPa 0,0 l/m 2,3 m/s (1 Bft) S-SW 1,00 h 18,8 klux 4,6 C 14,6 C
16.03.2004 18:00 13,2 C 16,2 C 56 % 1030 hPa 0,0 l/m 0,1 m/s (0 Bft) S-SO 0,42 h 1,69 klux 4,6 C 13,2 C
16.03.2004 19:00 10,2 C 12,4 C 67 % 1030 hPa 0,0 l/m 0,0 m/s (0 Bft) N 0,00 h 14 lux 4,2 C 10,2 C
16.03.2004 20:00 8,2 C 10,1 C 74 % 1030 hPa 0,0 l/m 0,1 m/s (0 Bft) W-NW 0,00 h 0 lux 3,9 C 8,2 C
16.03.2004 21:00 6,6 C 8,4 C 79 % 1030 hPa 0,0 l/m 0,0 m/s (0 Bft) N 0,00 h 0 lux 3,2 C 6,6 C
16.03.2004 22:00 5,4 C 7,0 C 83 % 1030 hPa 0,0 l/m 0,0 m/s (0 Bft) N 0,00 h 0 lux 2,7 C 5,4 C
16.03.2004 23:00 4,4 C 6,0 C 85 % 1030 hPa 0,0 l/m 0,0 m/s (0 Bft) N 0,00 h 0 lux 2,2 C 4,4 C
17.03.2004 00:00 3,3 C 5,0 C 87 % 1030 hPa 0,0 l/m 0,0 m/s (0 Bft) N 0,00 h 0 lux 1,3 C 3,3 C
17.03.2004 01:00 2,7 C 4,1 C 88 % 1030 hPa 0,0 l/m 0,0 m/s (0 Bft) N 0,00 h 0 lux 1,0 C 2,7 C
17.03.2004 02:00 2,1 C 3,6 C 89 % 1029 hPa 0,0 l/m 0,0 m/s (0 Bft) N 0,00 h 0 lux 0,5 C 2,1 C
17.03.2004 03:00 2,0 C 3,3 C 90 % 1029 hPa 0,0 l/m 0,0 m/s (0 Bft) N 0,00 h 0 lux 0,5 C 2,0 C
17.03.2004 04:00 2,0 C 3,3 C 91 % 1029 hPa 0,0 l/m 0,0 m/s (0 Bft) N 0,00 h 0 lux 0,7 C 2,0 C
17.03.2004 05:00 1,9 C 3,2 C 92 % 1029 hPa 0,0 l/m 0,0 m/s (0 Bft) N 0,00 h 0 lux 0,7 C 1,9 C
17.03.2004 06:00 1,5 C 2,8 C 92 % 1029 hPa 0,0 l/m 0,0 m/s (0 Bft) N 0,00 h 474 lux 0,3 C 1,5 C
17.03.2004 07:00 1,9 C 2,8 C 93 % 1029 hPa 0,0 l/m 0,0 m/s (0 Bft) N 0,00 h 4,91 klux 0,8 C 1,9 C
17.03.2004 08:00 3,0 C 3,8 C 91 % 1029 hPa 0,0 l/m 0,0 m/s (0 Bft) N 0,00 h 16,0 klux 1,7 C 3,0 C
17.03.2004 09:00 5,1 C 6,3 C 86 % 1029 hPa 0,0 l/m 0,0 m/s (0 Bft) N 0,58 h 39,4 klux 3,0 C 5,1 C
17.03.2004 10:00 9,3 C 13,9 C 80 % 1029 hPa 0,0 l/m 0,2 m/s (0 Bft) O-SO 1,00 h 61,1 klux 5,9 C 9,3 C
17.03.2004 11:00 15,0 C 22,0 C 52 % 1028 hPa 0,0 l/m 2,0 m/s (1 Bft) SW 1,00 h 69,4 klux 5,1 C 14,0 C
17.03.2004 12:00 17,4 C 25,1 C 42 % 1028 hPa 0,0 l/m 2,7 m/s (1 Bft) SW 1,00 h 72,9 klux 4,3 C 15,8 C
17.03.2004 13:00 19,3 C 27,0 C 37 % 1028 hPa 0,0 l/m 3,7 m/s (1 Bft) W-SW 1,00 h 71,1 klux 4,1 C 16,9 C
17.03.2004 14:00 20,4 C 28,1 C 34 % 1027 hPa 0,0 l/m 3,9 m/s (1 Bft) SW 1,00 h 64,9 klux 3,9 C 18,1 C
17.03.2004 15:00 20,5 C 28,9 C 35 % 1026 hPa 0,0 l/m 2,9 m/s (1 Bft) S 1,00 h 52,3 klux 4,6 C 19,2 C
17.03.2004 16:00 19,9 C 26,7 C 40 % 1026 hPa 0,0 l/m 3,1 m/s (1 Bft) SO 1,00 h 33,1 klux 5,9 C 18,3 C
17.03.2004 17:00 18,5 C 23,7 C 44 % 1026 hPa 0,0 l/m 0,8 m/s (0 Bft) SW 1,00 h 15,0 klux 6,2 C 18,5 C
17.03.2004 18:00 15,8 C 18,9 C 49 % 1026 hPa 0,0 l/m 0,3 m/s (0 Bft) SW 0,08 h 1,61 klux 5,1 C 15,8 C
17.03.2004 19:00 12,6 C 14,9 C 61 % 1026 hPa 0,0 l/m 0,0 m/s (0 Bft) N 0,00 h 16 lux 5,2 C 12,6 C
17.03.2004 20:00 10,3 C 12,2 C 71 % 1026 hPa 0,0 l/m 0,0 m/s (0 Bft) N 0,00 h 0 lux 5,3 C 10,3 C
17.03.2004 21:00 8,7 C 10,4 C 77 % 1027 hPa 0,0 l/m 0,0 m/s (0 Bft) N 0,00 h 0 lux 4,8 C 8,7 C
17.03.2004 22:00 7,4 C 9,0 C 82 % 1027 hPa 0,0 l/m 0,0 m/s (0 Bft) N 0,00 h 0 lux 4,5 C 7,4 C
17.03.2004 23:00 6,5 C 8,0 C 85 % 1026 hPa 0,0 l/m 0,0 m/s (0 Bft) N 0,00 h 0 lux 4,2 C 6,5 C
18.03.2004 00:00 5,6 C 7,1 C 88 % 1026 hPa 0,0 l/m 0,0 m/s (0 Bft) N 0,00 h 0 lux 3,8 C 5,6 C
18.03.2004 01:00 4,8 C 6,3 C 90 % 1026 hPa 0,0 l/m 0,0 m/s (0 Bft) N 0,00 h 0 lux 3,3 C 4,8 C
18.03.2004 02:00 4,5 C 5,8 C 92 % 1026 hPa 0,0 l/m 0,0 m/s (0 Bft) N 0,00 h 0 lux 3,3 C 4,5 C
18.03.2004 03:00 4,0 C 5,2 C 94 % 1026 hPa 0,0 l/m 0,0 m/s (0 Bft) N 0,00 h 0 lux 3,0 C 4,0 C
18.03.2004 04:00 3,5 C 4,9 C 94 % 1025 hPa 0,0 l/m 0,0 m/s (0 Bft) N 0,00 h 0 lux 2,7 C 3,5 C
18.03.2004 05:00 4,0 C 5,0 C 95 % 1025 hPa 0,0 l/m 0,0 m/s (0 Bft) N 0,00 h 0 lux 3,2 C 4,0 C
18.03.2004 06:00 3,6 C 4,8 C 95 % 1025 hPa 0,0 l/m 0,0 m/s (0 Bft) N 0,00 h 528 lux 2,8 C 3,6 C
18.03.2004 07:00 3,7 C 4,7 C 95 % 1025 hPa 0,0 l/m 0,0 m/s (0 Bft) N 0,00 h 5,59 klux 2,9 C 3,7 C
18.03.2004 08:00 5,1 C 5,6 C 93 % 1025 hPa 0,0 l/m 0,0 m/s (0 Bft) N 0,00 h 16,2 klux 4,1 C 5,1 C
18.03.2004 09:00 7,8 C 8,0 C 85 % 1025 hPa 0,0 l/m 0,2 m/s (0 Bft) SW 0,33 h 33,9 klux 5,4 C 7,8 C
18.03.2004 10:00 12,9 C 13,4 C 64 % 1024 hPa 0,0 l/m 0,6 m/s (0 Bft) O-SO 1,00 h 50,8 klux 6,2 C 12,9 C
18.03.2004 11:00 16,5 C 18,7 C 51 % 1024 hPa 0,0 l/m 2,0 m/s (1 Bft) O-SO 0,83 h 55,4 klux 6,3 C 15,8 C
18.03.2004 12:00 18,2 C 21,9 C 45 % 1023 hPa 0,0 l/m 2,8 m/s (1 Bft) SO 1,00 h 57,8 klux 6,2 C 16,7 C
18.03.2004 13:00 19,3 C 23,5 C 42 % 1022 hPa 0,0 l/m 3,0 m/s (1 Bft) SW 1,00 h 56,1 klux 6,3 C 17,7 C
18.03.2004 14:00 19,9 C 24,5 C 41 % 1021 hPa 0,0 l/m 2,5 m/s (1 Bft) SW 1,00 h 49,1 klux 6,4 C 18,8 C
18.03.2004 15:00 19,6 C 23,0 C 44 % 1020 hPa 0,0 l/m 1,8 m/s (1 Bft) SO 0,33 h 25,6 klux 6,9 C 19,0 C
18.03.2004 16:00 18,8 C 21,1 C 44 % 1020 hPa 0,0 l/m 2,2 m/s (1 Bft) SW 0,00 h 19,3 klux 6,3 C 17,7 C
18.03.2004 17:00 17,5 C 18,7 C 45 % 1019 hPa 0,0 l/m 1,6 m/s (1 Bft) S-SO 0,00 h 4,96 klux 5,4 C 16,7 C
18.03.2004 18:00 16,3 C 17,2 C 48 % 1019 hPa 0,0 l/m 1,7 m/s (1 Bft) W 0,00 h 874 lux 5,4 C 15,5 C
18.03.2004 19:00 15,1 C 15,6 C 54 % 1019 hPa 0,0 l/m 1,2 m/s (1 Bft) W 0,00 h 14 lux 6,0 C 14,8 C
18.03.2004 20:00 15,3 C 15,3 C 55 % 1019 hPa 0,0 l/m 2,4 m/s (1 Bft) W 0,00 h 4 lux 6,2 C 14,2 C
18.03.2004 21:00 14,9 C 15,0 C 57 % 1019 hPa 0,0 l/m 2,2 m/s (1 Bft) W-SW 0,00 h 0 lux 6,4 C 14,1 C
18.03.2004 22:00 15,0 C 14,8 C 56 % 1019 hPa 0,0 l/m 2,4 m/s (1 Bft) W-SW 0,00 h 0 lux 6,4 C 13,6 C
18.03.2004 23:00 15,2 C 15,1 C 56 % 1019 hPa 0,0 l/m 4,6 m/s (1 Bft) W 0,00 h 0 lux 6,4 C 11,2 C
19.03.2004 00:00 14,3 C 14,5 C 61 % 1019 hPa 0,0 l/m 6,0 m/s (2 Bft) W 0,00 h 0 lux 6,8 C 8,6 C
19.03.2004 01:00 12,1 C 13,0 C 69 % 1020 hPa 0,0 l/m 7,0 m/s (2 Bft) W 0,00 h 0 lux 6,6 C 4,9 C
19.03.2004 02:00 10,8 C 11,5 C 62 % 1020 hPa 0,0 l/m 4,4 m/s (1 Bft) W 0,00 h 0 lux 3,8 C 6,0 C
19.03.2004 03:00 10,3 C 10,7 C 63 % 1020 hPa 0,0 l/m 3,4 m/s (1 Bft) W-SW 0,00 h 0 lux 3,6 C 6,9 C
19.03.2004 04:00 10,3 C 10,6 C 63 % 1020 hPa 0,0 l/m 3,3 m/s (1 Bft) W 0,00 h 0 lux 3,6 C 7,1 C
19.03.2004 05:00 9,6 C 10,2 C 68 % 1020 hPa 0,0 l/m 1,5 m/s (1 Bft) W-SW 0,00 h 0 lux 4,0 C 9,4 C
19.03.2004 06:00 9,8 C 10,1 C 71 % 1020 hPa 0,0 l/m 2,0 m/s (1 Bft) W-SW 0,00 h 485 lux 4,7 C 8,5 C
19.03.2004 07:00 10,1 C 10,4 C 70 % 1020 hPa 0,0 l/m 4,3 m/s (1 Bft) W-SW 0,00 h 3,13 klux 4,9 C 5,1 C
19.03.2004 08:00 10,5 C 10,9 C 69 % 1020 hPa 0,0 l/m 6,2 m/s (2 Bft) W-SW 0,00 h 10,1 klux 5,1 C 3,4 C
19.03.2004 09:00 10,7 C 11,2 C 68 % 1020 hPa 0,0 l/m 6,7 m/s (2 Bft) SW 0,00 h 10,8 klux 5,0 C 3,1 C
19.03.2004 10:00 11,3 C 11,7 C 64 % 1019 hPa 0,0 l/m 8,6 m/s (2 Bft) W-SW 0,00 h 30,9 klux 4,8 C 2,3 C
19.03.2004 11:00 12,5 C 13,3 C 57 % 1019 hPa 0,0 l/m 8,6 m/s (2 Bft) W-SW 0,58 h 52,3 klux 4,3 C 4,1 C
19.03.2004 12:00 12,2 C 12,9 C 59 % 1018 hPa 0,0 l/m 8,1 m/s (2 Bft) SW 0,00 h 25,8 klux 4,4 C 4,0 C
19.03.2004 13:00 11,6 C 12,2 C 63 % 1017 hPa 0,0 l/m 10,1 m/s (2 Bft) W-SW 0,08 h 27,0 klux 4,8 C 1,9 C
19.03.2004 14:00 10,9 C 11,4 C 69 % 1016 hPa 0,0 l/m 8,8 m/s (2 Bft) W-SW 0,00 h 12,4 klux 5,3 C 1,6 C
19.03.2004 15:00 10,7 C 10,7 C 71 % 1016 hPa 0,0 l/m 9,1 m/s (2 Bft) W-SW 0,00 h 12,8 klux 5,6 C 1,1 C
19.03.2004 16:00 10,7 C 11,0 C 67 % 1015 hPa 0,0 l/m 10,0 m/s (2 Bft) W-SW 0,00 h 4,57 klux 4,8 C 0,6 C
19.03.2004 17:00 11,0 C 11,1 C 66 % 1014 hPa 0,0 l/m 10,2 m/s (2 Bft) W-SW 0,00 h 2,73 klux 4,8 C 0,9 C
19.03.2004 18:00 11,0 C 11,2 C 66 % 1013 hPa 0,0 l/m 10,4 m/s (2 Bft) W-SW 0,00 h 171 lux 4,8 C 0,8 C
19.03.2004 19:00 10,2 C 10,1 C 74 % 1013 hPa 0,7 l/m 9,3 m/s (2 Bft) SW 0,00 h 27 lux 5,7 C 0,4 C
19.03.2004 20:00 9,4 C 9,1 C 83 % 1012 hPa 0,7 l/m 7,8 m/s (2 Bft) SW 0,00 h 0 lux 6,6 C 0,4 C
19.03.2004 21:00 9,4 C 9,0 C 84 % 1012 hPa 1,1 l/m 7,7 m/s (2 Bft) SW 0,00 h 0 lux 6,8 C 0,3 C
19.03.2004 22:00 9,3 C 8,9 C 85 % 1012 hPa 1,1 l/m 8,1 m/s (2 Bft) W-SW 0,00 h 0 lux 6,9 C -0,0 C
19.03.2004 23:00 9,3 C 9,0 C 87 % 1011 hPa 0,4 l/m 8,6 m/s (2 Bft) W-SW 0,00 h 0 lux 7,2 C -0,5 C
20.03.2004 00:00 9,4 C 9,1 C 87 % 1011 hPa 0,4 l/m 8,3 m/s (2 Bft) W-SW 0,00 h 0 lux 7,4 C 0,0 C
20.03.2004 01:00 9,2 C 9,2 C 86 % 1011 hPa 1,4 l/m 8,8 m/s (2 Bft) W-SW 0,00 h 0 lux 7,0 C -0,7 C
20.03.2004 02:00 7,4 C 7,9 C 85 % 1012 hPa 0,4 l/m 5,7 m/s (1 Bft) W-SW 0,00 h 0 lux 5,1 C -0,1 C
20.03.2004 03:00 7,5 C 7,5 C 86 % 1012 hPa 0,0 l/m 5,5 m/s (1 Bft) W-SW 0,00 h 0 lux 5,3 C 0,3 C
20.03.2004 04:00 7,5 C 7,3 C 81 % 1013 hPa 0,0 l/m 6,3 m/s (2 Bft) W-SW 0,00 h 0 lux 4,4 C -0,8 C
20.03.2004 05:00 7,1 C 7,1 C 80 % 1013 hPa 0,0 l/m 6,3 m/s (2 Bft) W-SW 0,00 h 0 lux 3,9 C -1,3 C
20.03.2004 06:00 6,9 C 7,0 C 80 % 1013 hPa 0,0 l/m 4,6 m/s (1 Bft) W-SW 0,00 h 631 lux 3,7 C 0,7 C
20.03.2004 07:00 7,0 C 6,9 C 79 % 1013 hPa 0,0 l/m 4,5 m/s (1 Bft) W-SW 0,00 h 6,22 klux 3,6 C 1,0 C
20.03.2004 08:00 7,6 C 7,6 C 78 % 1013 hPa 0,0 l/m 5,2 m/s (1 Bft) SW 0,00 h 8,04 klux 4,1 C 0,8 C
20.03.2004 09:00 7,4 C 7,3 C 87 % 1012 hPa 0,4 l/m 5,9 m/s (2 Bft) SW 0,00 h 9,1 klux 5,3 C -0,4 C
20.03.2004 10:00 8,6 C 8,1 C 86 % 1011 hPa 0,0 l/m 6,7 m/s (2 Bft) W-SW 0,00 h 5,56 klux 6,4 C 0,2 C
20.03.2004 11:00 10,3 C 9,8 C 81 % 1011 hPa 0,0 l/m 8,4 m/s (2 Bft) W-SW 0,00 h 10,2 klux 7,2 C 1,1 C
20.03.2004 12:00 11,5 C 11,2 C 79 % 1011 hPa 0,0 l/m 8,0 m/s (2 Bft) W-SW 0,00 h 11,0 klux 7,9 C 3,1 C
20.03.2004 13:00 11,9 C 11,7 C 79 % 1011 hPa 0,0 l/m 6,9 m/s (2 Bft) SW 0,00 h 13,5 klux 8,4 C 4,6 C
20.03.2004 14:00 12,1 C 11,8 C 81 % 1010 hPa 0,4 l/m 7,2 m/s (2 Bft) SW 0,00 h 12,9 klux 9,0 C 4,5 C
20.03.2004 15:00 12,1 C 11,9 C 80 % 1009 hPa 0,0 l/m 7,2 m/s (2 Bft) SW 0,00 h 4,70 klux 8,7 C 4,5 C
20.03.2004 16:00 11,8 C 11,7 C 81 % 1008 hPa 0,4 l/m 6,5 m/s (2 Bft) SW 0,00 h 3,06 klux 8,7 C 4,8 C
20.03.2004 17:00 11,9 C 11,8 C 79 % 1007 hPa 0,0 l/m 8,6 m/s (2 Bft) SW 0,00 h 640 lux 8,3 C 3,3 C
20.03.2004 18:00 12,1 C 12,0 C 74 % 1006 hPa 0,0 l/m 10,8 m/s (2 Bft) SW 0,00 h 134 lux 7,6 C 2,2 C
20.03.2004 19:00 12,4 C 12,3 C 72 % 1006 hPa 0,0 l/m 11,2 m/s (2 Bft) SW 0,00 h 12 lux 7,5 C 2,4 C
20.03.2004 20:00 12,0 C 11,9 C 75 % 1005 hPa 0,4 l/m 10,1 m/s (2 Bft) W-SW 0,00 h 0 lux 7,7 C 2,5 C
20.03.2004 21:00 12,0 C 11,5 C 75 % 1004 hPa 0,4 l/m 12,1 m/s (2 Bft) W-SW 0,00 h 0 lux 7,7 C 1,5 C
20.03.2004 22:00 12,3 C 11,8 C 74 % 1004 hPa 0,0 l/m 11,4 m/s (2 Bft) W-SW 0,00 h 0 lux 7,7 C 2,2 C
20.03.2004 23:00 11,8 C 11,7 C 76 % 1004 hPa 0,0 l/m 10,0 m/s (2 Bft) W-SW 0,00 h 0 lux 7,6 C 2,2 C
21.03.2004 00:00 11,7 C 11,5 C 75 % 1003 hPa 0,0 l/m 10,9 m/s (2 Bft) W-SW 0,00 h 0 lux 7,3 C 1,6 C
21.03.2004 01:00 10,4 C 10,6 C 81 % 1003 hPa 2,5 l/m 11,5 m/s (2 Bft) W-SW 0,00 h 0 lux 7,4 C -0,6 C
21.03.2004 02:00 8,4 C 8,7 C 84 % 1004 hPa 3,2 l/m 12,2 m/s (2 Bft) W 0,00 h 0 lux 5,9 C -3,8 C
21.03.2004 03:00 7,1 C 7,5 C 78 % 1004 hPa 0,7 l/m 11,0 m/s (2 Bft) W 0,00 h 0 lux 3,6 C -5,1 C
21.03.2004 04:00 6,7 C 6,6 C 78 % 1004 hPa 0,4 l/m 9,7 m/s (2 Bft) W-SW 0,00 h 0 lux 3,3 C -5,0 C
21.03.2004 05:00 6,0 C 6,1 C 78 % 1004 hPa 0,4 l/m 8,6 m/s (2 Bft) W-SW 0,00 h 0 lux 2,5 C -5,1 C
21.03.2004 06:00 5,6 C 5,9 C 81 % 1005 hPa 0,0 l/m 5,9 m/s (2 Bft) W-SW 0,00 h 324 lux 2,6 C -2,7 C
21.03.2004 07:00 5,8 C 6,0 C 79 % 1005 hPa 0,0 l/m 6,2 m/s (2 Bft) W-SW 0,00 h 3,52 klux 2,5 C -2,8 C
21.03.2004 08:00 6,4 C 6,6 C 77 % 1005 hPa 0,0 l/m 5,4 m/s (1 Bft) SW 0,00 h 11,3 klux 2,7 C -1,1 C
21.03.2004 09:00 6,9 C 7,0 C 74 % 1005 hPa 0,0 l/m 8,0 m/s (2 Bft) W-SW 0,00 h 13,3 klux 2,6 C -3,4 C
21.03.2004 10:00 7,9 C 8,3 C 69 % 1005 hPa 0,0 l/m 8,2 m/s (2 Bft) W-SW 0,25 h 35,9 klux 2,6 C -2,0 C
21.03.2004 11:00 6,0 C 7,6 C 77 % 1006 hPa 2,9 l/m 9,3 m/s (2 Bft) W 0,08 h 19,4 klux 2,2 C -5,5 C
21.03.2004 12:00 7,9 C 11,6 C 72 % 1006 hPa 0,0 l/m 9,2 m/s (2 Bft) W-SW 1,00 h 81,5 klux 3,1 C -2,7 C
21.03.2004 13:00 9,6 C 12,6 C 55 % 1006 hPa 0,0 l/m 9,1 m/s (2 Bft) W 0,33 h 49,5 klux 0,9 C -0,4 C
21.03.2004 14:00 10,9 C 14,0 C 43 % 1005 hPa 0,0 l/m 10,3 m/s (2 Bft) W-SW 0,50 h 55,3 klux -1,1 C 0,9 C
21.03.2004 15:00 10,5 C 14,6 C 48 % 1006 hPa 0,0 l/m 10,2 m/s (2 Bft) W-SW 0,92 h 65,2 klux -0,2 C 0,4 C
21.03.2004 16:00 10,5 C 13,6 C 44 % 1005 hPa 0,0 l/m 10,3 m/s (2 Bft) W-SW 0,17 h 18,8 klux -1,3 C 0,2 C
21.03.2004 17:00 7,9 C 9,4 C 60 % 1006 hPa 0,0 l/m 9,9 m/s (2 Bft) W-SW 0,42 h 14,0 klux 0,6 C -3,4 C
21.03.2004 18:00 6,4 C 7,1 C 68 % 1005 hPa 0,0 l/m 4,9 m/s (1 Bft) W-SW 0,00 h 1,39 klux 0,9 C -0,3 C
21.03.2004 19:00 6,2 C 6,6 C 76 % 1006 hPa 0,4 l/m 6,0 m/s (2 Bft) W-SW 0,00 h 11 lux 2,3 C -1,8 C
21.03.2004 20:00 5,4 C 5,6 C 80 % 1006 hPa 0,0 l/m 3,5 m/s (1 Bft) W-SW 0,00 h 0 lux 2,2 C 1,5 C
21.03.2004 21:00 5,6 C 5,6 C 74 % 1006 hPa 0,0 l/m 4,2 m/s (1 Bft) W-SW 0,00 h 0 lux 1,4 C -0,0 C
21.03.2004 22:00 5,8 C 5,8 C 72 % 1007 hPa 0,0 l/m 4,6 m/s (1 Bft) SW 0,00 h 0 lux 1,2 C -0,6 C
21.03.2004 23:00 5,7 C 5,9 C 73 % 1007 hPa 0,0 l/m 6,5 m/s (2 Bft) SW 0,00 h 0 lux 1,3 C -3,4 C
Min-Datum _ 17.03.04 17.03.04 17.03.04 21.03.04 - 15.03.04 - - - 21.03.04 21.03.04
_ Min-Zeit 06:35 06:55 14:40 00:50 - 03:10 - - - 14:55 11:25
Minimum _ 1,3 C 2,5 C 32 % 1002 hPa - 0,0 m/s (0 Bft) - - - -2,2 C -11,4 C
Max-Datum _ 17.03.04 17.03.04 18.03.04 16.03.04 21.03.04 21.03.04 - 15.03.04 15.03.04 20.03.04 17.03.04
_ Max-Zeit 14:30 15:05 04:55 04:35 01:00 03:35 - 12:00 12:30 14:20 14:35
Maximum _ 20,7 C 29,2 C 95 % 1031 hPa 3,2 l/m 15,5 m/s
W (7 Bft)
- 1,00 h 107 klux 9,2 C 20,7 C
Durchschnitt _ 10,0 C 11,2 C 69 % 1020 hPa #18,4 l/m 4,5 m/s (3 Bft) W-SW #31:00 h 14,3 klux 4,1 C 5,3 C

Durchschnitt Minimum Temp.9,2 C
Durchschnitt Maximum Temp.10,7 C